createdAt,value
2023-05-15T00:00:00.310Z,96411.72
2023-05-15T00:02:27.952Z,96400.97
2023-05-15T00:04:54.595Z,96398.34
2023-05-15T00:07:22.222Z,96389.75
2023-05-15T00:09:48.690Z,96389.03
2023-05-15T00:12:16.178Z,96388.84
2023-05-15T00:14:42.687Z,96389.41
2023-05-15T00:17:09.887Z,96380.41
2023-05-15T00:19:36.377Z,96380.53
2023-05-15T00:22:02.861Z,96376.09
2023-05-15T00:24:29.349Z,96377.53
2023-05-15T00:26:55.955Z,96368.09
2023-05-15T00:29:22.538Z,96369.66
2023-05-15T00:31:49.134Z,96369.72
2023-05-15T00:34:15.713Z,96359.03
2023-05-15T00:36:42.183Z,96375.13
2023-05-15T00:39:08.676Z,96367.13
2023-05-15T00:41:36.959Z,96371.72
2023-05-15T00:44:03.920Z,96359.00
2023-05-15T00:46:32.028Z,96361.53
2023-05-15T00:48:59.889Z,96367.44
2023-05-15T00:51:27.261Z,96359.47
2023-05-15T00:53:54.924Z,96349.25
2023-05-15T00:56:22.266Z,96359.88
2023-05-15T00:58:49.645Z,96360.34
2023-05-15T01:01:17.166Z,96354.66
2023-05-15T01:03:44.481Z,96359.13
2023-05-15T01:06:11.465Z,96355.81
2023-05-15T01:08:44.090Z,96331.63
2023-05-15T01:11:12.620Z,96355.72
2023-05-15T01:13:39.437Z,96362.13
2023-05-15T01:16:07.432Z,96361.50
2023-05-15T01:18:34.034Z,96354.84
2023-05-15T01:21:45.865Z,96359.78
2023-05-15T01:24:30.960Z,96361.31
2023-05-15T01:27:20.591Z,96351.38
2023-05-15T01:30:00.775Z,96310.69
2023-05-15T01:32:50.436Z,96351.47
2023-05-15T01:35:26.105Z,96358.56
2023-05-15T01:38:05.125Z,96354.75
2023-05-15T01:40:31.600Z,96342.84
2023-05-15T01:43:05.956Z,96350.72
2023-05-15T01:45:34.090Z,96356.84
2023-05-15T01:48:01.998Z,96356.22
2023-05-15T01:50:32.603Z,96348.09
2023-05-15T01:53:02.137Z,96344.84
2023-05-15T01:55:30.512Z,96353.38
2023-05-15T01:58:01.171Z,96323.41
2023-05-15T02:00:29.324Z,96345.88
2023-05-15T02:02:57.665Z,96328.25
2023-05-15T02:05:26.361Z,96333.16
2023-05-15T02:07:53.678Z,96329.22
2023-05-15T02:10:21.254Z,96335.47
2023-05-15T02:12:49.504Z,96335.75
2023-05-15T02:15:17.395Z,96334.16
2023-05-15T02:17:44.083Z,96335.00
2023-05-15T02:20:10.690Z,96337.41
2023-05-15T02:22:37.189Z,96334.78
2023-05-15T02:25:03.958Z,96324.22
2023-05-15T02:27:37.048Z,96321.97
2023-05-15T02:30:21.949Z,96316.38
2023-05-15T02:33:11.483Z,96316.81
2023-05-15T02:35:47.486Z,96309.47
2023-05-15T02:38:17.378Z,96294.16
2023-05-15T02:40:46.146Z,96315.56
2023-05-15T02:43:14.106Z,96323.31
2023-05-15T02:45:41.904Z,96318.75
2023-05-15T02:48:09.178Z,96308.41
2023-05-15T02:50:35.905Z,96317.19
2023-05-15T02:53:10.190Z,96301.69
2023-05-15T02:55:38.822Z,96290.38
2023-05-15T02:58:05.816Z,96307.69
2023-05-15T03:00:32.318Z,96308.31
2023-05-15T03:02:59.867Z,96297.53
2023-05-15T03:05:27.096Z,96307.91
2023-05-15T03:07:53.920Z,96299.78
2023-05-15T03:10:23.735Z,96298.53
2023-05-15T03:12:50.336Z,96293.97
2023-05-15T03:15:16.985Z,96284.97
2023-05-15T03:17:43.537Z,96302.66
2023-05-15T03:20:11.177Z,96298.22
2023-05-15T03:22:37.689Z,96301.06
2023-05-15T03:25:04.437Z,96290.88
2023-05-15T03:27:30.904Z,96295.16
2023-05-15T03:29:57.426Z,96289.16
2023-05-15T03:32:23.978Z,96294.28
2023-05-15T03:34:50.502Z,96301.63
2023-05-15T03:37:17.041Z,96297.56
2023-05-15T03:39:43.596Z,96287.59
2023-05-15T03:42:10.082Z,96289.22
2023-05-15T03:44:36.593Z,96291.66
2023-05-15T03:47:03.163Z,96294.81
2023-05-15T03:49:29.678Z,96294.38
2023-05-15T03:51:57.213Z,96294.41
2023-05-15T03:54:23.915Z,96283.44
2023-05-15T03:56:50.580Z,96293.53
2023-05-15T03:59:17.044Z,96275.72
2023-05-15T04:01:59.387Z,96273.94
2023-05-15T04:04:29.823Z,96272.50
2023-05-15T04:06:56.316Z,96286.13
2023-05-15T04:09:22.760Z,96270.06
2023-05-15T04:11:49.406Z,96276.44
2023-05-15T04:14:15.897Z,96279.25
2023-05-15T04:16:42.537Z,96268.19
2023-05-15T04:19:09.264Z,96276.94
2023-05-15T04:21:35.866Z,96277.94
2023-05-15T04:24:02.377Z,96270.41
2023-05-15T04:26:29.574Z,96270.53
2023-05-15T04:29:04.033Z,96274.66
2023-05-15T04:31:31.861Z,96275.31
2023-05-15T04:33:58.703Z,96275.28
2023-05-15T04:36:26.215Z,96276.06
2023-05-15T04:38:52.767Z,96274.78
2023-05-15T04:41:19.264Z,96279.47
2023-05-15T04:43:46.011Z,96283.22
2023-05-15T04:46:12.557Z,96286.53
2023-05-15T04:48:40.075Z,96281.69
2023-05-15T04:51:07.599Z,96280.13
2023-05-15T04:53:34.280Z,96294.75
2023-05-15T04:56:00.811Z,96292.69
2023-05-15T04:58:27.293Z,96290.25
2023-05-15T05:00:53.831Z,96276.28
2023-05-15T05:03:20.417Z,96281.50
2023-05-15T05:05:46.932Z,96284.44
2023-05-15T05:08:13.448Z,96290.03
2023-05-15T05:10:39.956Z,96286.56
2023-05-15T05:13:06.457Z,96295.06
2023-05-15T05:15:33.016Z,96283.38
2023-05-15T05:17:59.570Z,96280.19
2023-05-15T05:20:26.497Z,96297.28
2023-05-15T05:22:53.132Z,96294.72
2023-05-15T05:25:20.020Z,96286.50
2023-05-15T05:27:46.535Z,96280.50
2023-05-15T05:30:13.228Z,96286.25
2023-05-15T05:32:39.787Z,96292.88
2023-05-15T05:35:06.565Z,96292.59
2023-05-15T05:37:33.169Z,96287.34
2023-05-15T05:39:59.686Z,96291.28
2023-05-15T05:42:26.940Z,96296.59
2023-05-15T05:44:53.488Z,96291.50
2023-05-15T05:47:20.033Z,96285.78
2023-05-15T05:49:48.170Z,96282.69
2023-05-15T05:52:16.016Z,96277.56
2023-05-15T05:54:42.780Z,96280.34
2023-05-15T05:57:09.693Z,96274.09
2023-05-15T05:59:36.291Z,96270.03
2023-05-15T06:02:03.798Z,96274.47
2023-05-15T06:04:34.130Z,96267.97
2023-05-15T06:07:01.008Z,96271.66
2023-05-15T06:09:27.760Z,96277.63
2023-05-15T06:11:54.241Z,96263.59
2023-05-15T06:14:21.289Z,96256.91
2023-05-15T06:16:47.928Z,96267.72
2023-05-15T06:19:14.592Z,96270.31
2023-05-15T06:21:41.220Z,96272.88
2023-05-15T06:24:07.770Z,96267.75
2023-05-15T06:26:34.407Z,96254.13
2023-05-15T06:29:00.885Z,96260.19
2023-05-15T06:31:27.449Z,96258.00
2023-05-15T06:33:54.922Z,96255.34
2023-05-15T06:36:21.457Z,96254.31
2023-05-15T06:38:47.969Z,96246.50
2023-05-15T06:41:14.521Z,96248.03
2023-05-15T06:43:41.103Z,96248.56
2023-05-15T06:46:07.609Z,96243.16
2023-05-15T06:48:34.312Z,96245.34
2023-05-15T06:51:00.833Z,96239.66
2023-05-15T06:53:27.306Z,96242.25
2023-05-15T06:55:53.818Z,96249.72
2023-05-15T06:58:20.381Z,96244.47
2023-05-15T07:00:46.833Z,96247.81
2023-05-15T07:03:14.501Z,96247.09
2023-05-15T07:05:41.087Z,96247.72
2023-05-15T07:08:07.596Z,96239.13
2023-05-15T07:10:34.082Z,96225.31
2023-05-15T07:13:00.559Z,96230.06
2023-05-15T07:15:27.168Z,96232.13
2023-05-15T07:17:53.768Z,96235.59
2023-05-15T07:20:20.530Z,96234.97
2023-05-15T07:22:55.518Z,96235.34
2023-05-15T07:25:23.972Z,96234.69
2023-05-15T07:27:50.999Z,96237.47
2023-05-15T07:30:18.460Z,96245.84
2023-05-15T07:32:44.984Z,96230.88
2023-05-15T07:35:11.641Z,96226.16
2023-05-15T07:37:38.610Z,96236.81
2023-05-15T07:40:05.955Z,96232.53
2023-05-15T07:42:32.427Z,96232.00
2023-05-15T07:44:58.951Z,96220.19
2023-05-15T07:47:25.629Z,96231.25
2023-05-15T07:49:52.150Z,96221.81
2023-05-15T07:52:19.269Z,96210.13
2023-05-15T07:54:45.725Z,96223.94
2023-05-15T07:57:13.066Z,96209.66
2023-05-15T07:59:39.923Z,96216.69
2023-05-15T08:02:07.252Z,96197.41
2023-05-15T08:04:33.871Z,96201.72
2023-05-15T08:07:00.721Z,96202.50
2023-05-15T08:09:27.194Z,96203.03
2023-05-15T08:11:56.446Z,96199.28
2023-05-15T08:14:22.983Z,96196.00
2023-05-15T08:16:50.378Z,96204.44
2023-05-15T08:19:17.033Z,96220.75
2023-05-15T08:21:43.637Z,96210.53
2023-05-15T08:24:10.072Z,96207.47
2023-05-15T08:26:36.608Z,96216.41
2023-05-15T08:29:03.212Z,96207.44
2023-05-15T08:31:30.754Z,96204.56
2023-05-15T08:33:57.304Z,96213.66
2023-05-15T08:36:24.027Z,96217.16
2023-05-15T08:38:50.565Z,96205.47
2023-05-15T08:41:39.989Z,96204.66
2023-05-15T08:44:09.393Z,96194.88
2023-05-15T08:46:36.506Z,96200.59
2023-05-15T08:49:14.603Z,96208.06
2023-05-15T08:51:41.400Z,96193.94
2023-05-15T08:54:08.668Z,96198.03
2023-05-15T08:56:36.134Z,96203.25
2023-05-15T08:59:03.725Z,96212.06
2023-05-15T09:01:30.595Z,96211.88
2023-05-15T09:03:57.149Z,96208.50
2023-05-15T09:06:25.046Z,96214.94
2023-05-15T09:08:55.424Z,96203.25
2023-05-15T09:11:24.432Z,96192.13
2023-05-15T09:13:50.930Z,96197.78
2023-05-15T09:16:17.667Z,96196.69
2023-05-15T09:18:45.060Z,96196.81
2023-05-15T09:21:31.569Z,96191.91
2023-05-15T09:24:23.751Z,96192.78
2023-05-15T09:27:08.550Z,96180.28
2023-05-15T09:29:37.993Z,96175.72
2023-05-15T09:32:14.552Z,96185.00
2023-05-15T09:34:43.100Z,96188.16
2023-05-15T09:37:11.566Z,96183.31
2023-05-15T09:39:42.842Z,96180.78
2023-05-15T09:42:13.296Z,96175.13
2023-05-15T09:44:43.588Z,96175.72
2023-05-15T09:47:12.863Z,96183.41
2023-05-15T09:49:40.118Z,96183.41
2023-05-15T09:52:09.876Z,96173.28
2023-05-15T09:54:37.204Z,96172.25
2023-05-15T09:57:12.056Z,96182.34
2023-05-15T09:59:49.244Z,96179.91
2023-05-15T10:02:34.608Z,96173.84
2023-05-15T10:05:01.385Z,96174.81
2023-05-15T10:07:32.212Z,96175.66
2023-05-15T10:09:59.872Z,96162.06
2023-05-15T10:12:26.881Z,96162.50
2023-05-15T10:14:56.655Z,96146.66
2023-05-15T10:17:23.450Z,96159.47
2023-05-15T10:19:57.866Z,96160.19
2023-05-15T10:22:29.621Z,96155.88
2023-05-15T10:25:02.686Z,96165.28
2023-05-15T10:27:31.101Z,96165.03
2023-05-15T10:29:58.595Z,96173.91
2023-05-15T10:32:26.210Z,96173.69
2023-05-15T10:34:54.476Z,96167.97
2023-05-15T10:37:21.801Z,96165.00
2023-05-15T10:39:49.658Z,96164.41
2023-05-15T10:42:17.126Z,96160.16
2023-05-15T10:44:43.594Z,96159.66
2023-05-15T10:47:10.715Z,96165.53
2023-05-15T10:49:37.380Z,96160.34
2023-05-15T10:52:04.093Z,96167.25
2023-05-15T10:54:30.727Z,96165.59
2023-05-15T10:56:57.361Z,96153.28
2023-05-15T10:59:31.787Z,96156.13
2023-05-15T11:02:25.704Z,96143.34
2023-05-15T11:05:00.273Z,96132.91
2023-05-15T11:07:27.563Z,96129.16
2023-05-15T11:09:55.023Z,96130.72
2023-05-15T11:12:22.197Z,96131.00
2023-05-15T11:14:54.411Z,96127.00
2023-05-15T11:17:23.460Z,96118.19
2023-05-15T11:19:49.871Z,96126.16
2023-05-15T11:22:21.649Z,96123.81
2023-05-15T11:25:05.624Z,96127.38
2023-05-15T11:27:43.209Z,96114.09
2023-05-15T11:30:22.987Z,96120.88
2023-05-15T11:33:16.391Z,96117.66
2023-05-15T11:35:46.633Z,96105.31
2023-05-15T11:38:16.863Z,96102.34
2023-05-15T11:40:52.440Z,96091.06
2023-05-15T11:43:27.125Z,96091.44
2023-05-15T11:45:58.176Z,96103.72
2023-05-15T11:48:36.092Z,96098.91
2023-05-15T11:51:04.292Z,96098.31
2023-05-15T11:53:32.067Z,96087.09
2023-05-15T11:55:59.116Z,96091.09
2023-05-15T11:58:26.447Z,96102.09
2023-05-15T12:00:53.817Z,96097.25
2023-05-15T12:03:27.703Z,96140.09
2023-05-15T12:05:59.749Z,96142.81
2023-05-15T12:08:37.679Z,96150.22
2023-05-15T12:11:05.051Z,96147.41
2023-05-15T12:13:32.925Z,96147.09
2023-05-15T12:16:00.546Z,96167.28
2023-05-15T12:18:33.342Z,96174.81
2023-05-15T12:21:00.334Z,96176.94
2023-05-15T12:23:28.392Z,96188.56
2023-05-15T12:26:01.508Z,96192.00
2023-05-15T12:28:29.499Z,96199.28
2023-05-15T12:30:56.525Z,96205.59
2023-05-15T12:33:23.960Z,96199.72
2023-05-15T12:35:55.266Z,96190.94
2023-05-15T12:38:24.930Z,96187.13
2023-05-15T12:40:53.778Z,96185.84
2023-05-15T12:43:23.564Z,96182.72
2023-05-15T12:45:52.763Z,96175.63
2023-05-15T12:48:19.559Z,96168.47
2023-05-15T12:50:46.053Z,96165.31
2023-05-15T12:53:16.537Z,96164.34
2023-05-15T12:55:47.107Z,96145.59
2023-05-15T12:58:15.762Z,96153.47
2023-05-15T13:00:43.293Z,96143.19
2023-05-15T13:03:11.484Z,96143.88
2023-05-15T13:05:39.708Z,96145.56
2023-05-15T13:08:09.321Z,96139.75
2023-05-15T13:10:37.961Z,96130.53
2023-05-15T13:13:04.518Z,96137.38
2023-05-15T13:15:35.438Z,96130.53
2023-05-15T13:18:13.084Z,96139.81
2023-05-15T13:20:44.573Z,96136.13
2023-05-15T13:23:16.088Z,96135.66
2023-05-15T13:25:43.279Z,96135.91
2023-05-15T13:28:11.380Z,96129.59
2023-05-15T13:30:41.915Z,96128.81
2023-05-15T13:33:09.728Z,96124.25
2023-05-15T13:35:37.293Z,96127.03
2023-05-15T13:38:04.355Z,96120.81
2023-05-15T13:40:33.430Z,96125.63
2023-05-15T13:42:59.969Z,96120.97
2023-05-15T13:45:26.779Z,96129.22
2023-05-15T13:47:54.558Z,96115.44
2023-05-15T13:50:21.205Z,96122.56
2023-05-15T13:52:48.790Z,96106.03
2023-05-15T13:55:15.456Z,96110.16
2023-05-15T13:57:43.136Z,96107.81
2023-05-15T14:00:15.037Z,96112.31
2023-05-15T14:02:43.518Z,96108.13
2023-05-15T14:05:14.857Z,96114.44
2023-05-15T14:07:42.326Z,96117.81
2023-05-15T14:10:09.770Z,96121.03
2023-05-15T14:12:37.358Z,96122.88
2023-05-15T14:15:04.416Z,96115.25
2023-05-15T14:17:32.103Z,96098.00
2023-05-15T14:19:58.745Z,96103.22
2023-05-15T14:22:25.413Z,96113.59
2023-05-15T14:24:53.230Z,96101.72
2023-05-15T14:27:20.137Z,96126.16
2023-05-15T14:29:48.923Z,96125.34
2023-05-15T14:32:16.429Z,96116.66
2023-05-15T14:34:43.193Z,96121.84
2023-05-15T14:37:09.725Z,96111.03
2023-05-15T14:39:36.337Z,96123.88
2023-05-15T14:42:02.845Z,96120.00
2023-05-15T14:44:29.337Z,96109.81
2023-05-15T14:47:16.701Z,96125.38
2023-05-15T14:49:43.303Z,96114.66
2023-05-15T14:52:11.641Z,96116.25
2023-05-15T14:54:39.188Z,96112.53
2023-05-15T14:57:06.174Z,96122.16
2023-05-15T14:59:32.709Z,96122.81
2023-05-15T15:01:59.285Z,96130.25
2023-05-15T15:04:28.194Z,96134.34
2023-05-15T15:06:57.574Z,96132.81
2023-05-15T15:09:25.584Z,96127.78
2023-05-15T15:11:53.665Z,96134.94
2023-05-15T15:14:20.405Z,96142.78
2023-05-15T15:16:47.207Z,96145.59
2023-05-15T15:19:16.123Z,96134.69
2023-05-15T15:21:45.171Z,96152.00
2023-05-15T15:24:11.645Z,96152.28
2023-05-15T15:26:38.125Z,96142.31
2023-05-15T15:29:04.620Z,96155.28
2023-05-15T15:31:31.673Z,96151.94
2023-05-15T15:33:58.794Z,96135.91
2023-05-15T15:36:25.990Z,96152.03
2023-05-15T15:38:52.522Z,96142.34
2023-05-15T15:41:21.562Z,96139.50
2023-05-15T15:43:48.337Z,96141.97
2023-05-15T15:46:14.970Z,96141.47
2023-05-15T15:48:41.636Z,96150.41
2023-05-15T15:51:08.270Z,96156.16
2023-05-15T15:53:34.934Z,96145.94
2023-05-15T15:56:01.615Z,96153.13
2023-05-15T15:58:28.893Z,96146.44
2023-05-15T16:00:55.625Z,96146.56
2023-05-15T16:03:22.272Z,96157.91
2023-05-15T16:05:48.953Z,96158.63
2023-05-15T16:08:15.466Z,96152.06
2023-05-15T16:10:42.013Z,96154.25
2023-05-15T16:13:09.367Z,96158.94
2023-05-15T16:15:35.852Z,96156.47
2023-05-15T16:18:02.385Z,96156.91
2023-05-15T16:20:29.288Z,96151.59
2023-05-15T16:22:56.298Z,96162.06
2023-05-15T16:25:22.903Z,96158.09
2023-05-15T16:27:49.491Z,96158.41
2023-05-15T16:30:33.799Z,96169.28
2023-05-15T16:33:41.281Z,96167.44
2023-05-15T16:36:07.967Z,96164.28
2023-05-15T16:38:34.700Z,96157.94
2023-05-15T16:41:02.184Z,96169.91
2023-05-15T16:43:28.906Z,96162.97
2023-05-15T16:45:55.565Z,96169.81
2023-05-15T16:48:22.964Z,96167.03
2023-05-15T16:50:49.482Z,96178.00
2023-05-15T16:53:16.032Z,96169.47
2023-05-15T16:55:42.571Z,96175.28
2023-05-15T16:58:09.052Z,96181.50
2023-05-15T17:00:35.681Z,96181.66
2023-05-15T17:03:02.281Z,96179.63
2023-05-15T17:05:28.816Z,96182.88
2023-05-15T17:07:55.260Z,96190.91
2023-05-15T17:10:21.809Z,96181.81
2023-05-15T17:12:48.329Z,96174.88
2023-05-15T17:15:14.874Z,96175.75
2023-05-15T17:17:41.527Z,96179.06
2023-05-15T17:20:08.603Z,96184.63
2023-05-15T17:22:35.127Z,96186.53
2023-05-15T17:25:01.687Z,96187.03
2023-05-15T17:27:28.264Z,96195.50
2023-05-15T17:29:55.011Z,96186.22
2023-05-15T17:32:22.066Z,96196.84
2023-05-15T17:34:52.560Z,96206.19
2023-05-15T17:37:19.450Z,96194.56
2023-05-15T17:39:46.184Z,96201.78
2023-05-15T17:42:12.747Z,96199.03
2023-05-15T17:44:39.271Z,96214.09
2023-05-15T17:47:05.894Z,96210.44
2023-05-15T17:49:34.188Z,96207.03
2023-05-15T17:52:00.766Z,96213.25
2023-05-15T17:54:27.433Z,96212.34
2023-05-15T17:56:53.922Z,96210.72
2023-05-15T17:59:20.444Z,96233.03
2023-05-15T18:01:46.984Z,96237.06
2023-05-15T18:04:13.523Z,96234.31
2023-05-15T18:06:40.493Z,96239.59
2023-05-15T18:09:07.758Z,96238.78
2023-05-15T18:11:34.288Z,96236.63
2023-05-15T18:14:00.930Z,96245.88
2023-05-15T18:16:27.938Z,96250.97
2023-05-15T18:18:54.551Z,96258.44
2023-05-15T18:21:21.263Z,96254.91
2023-05-15T18:23:47.859Z,96259.16
2023-05-15T18:26:14.382Z,96265.34
2023-05-15T18:28:40.961Z,96267.44
2023-05-15T18:31:07.579Z,96263.31
2023-05-15T18:33:34.267Z,96278.75
2023-05-15T18:36:05.259Z,96280.34
2023-05-15T18:38:33.349Z,96279.47
2023-05-15T18:40:59.839Z,96279.56
2023-05-15T18:43:26.338Z,96293.09
2023-05-15T18:45:54.174Z,96282.38
2023-05-15T18:48:20.833Z,96278.69
2023-05-15T18:50:47.313Z,96294.03
2023-05-15T18:53:13.879Z,96296.44
2023-05-15T18:55:40.380Z,96300.28
2023-05-15T18:58:06.861Z,96308.06
2023-05-15T19:00:38.644Z,96302.31
2023-05-15T19:03:06.441Z,96316.19
2023-05-15T19:05:34.134Z,96320.22
2023-05-15T19:08:01.345Z,96308.66
2023-05-15T19:10:29.484Z,96307.56
2023-05-15T19:12:57.034Z,96315.16
2023-05-15T19:15:24.755Z,96321.25
2023-05-15T19:17:51.817Z,96313.25
2023-05-15T19:20:18.511Z,96327.94
2023-05-15T19:22:45.017Z,96324.72
2023-05-15T19:25:11.789Z,96336.91
2023-05-15T19:27:38.272Z,96336.03
2023-05-15T19:30:07.023Z,96343.16
2023-05-15T19:32:34.347Z,96338.84
2023-05-15T19:35:00.981Z,96338.78
2023-05-15T19:37:27.626Z,96336.84
2023-05-15T19:39:54.174Z,96342.34
2023-05-15T19:42:20.748Z,96336.91
2023-05-15T19:44:47.212Z,96336.78
2023-05-15T19:47:13.696Z,96341.56
2023-05-15T19:49:40.370Z,96340.41
2023-05-15T19:52:07.467Z,96349.88
2023-05-15T19:54:33.991Z,96349.72
2023-05-15T19:57:02.912Z,96355.69
2023-05-15T19:59:29.927Z,96353.13
2023-05-15T20:01:56.692Z,96344.56
2023-05-15T20:04:23.305Z,96344.50
2023-05-15T20:06:49.856Z,96346.28
2023-05-15T20:09:16.402Z,96342.97
2023-05-15T20:11:43.111Z,96363.59
2023-05-15T20:14:09.571Z,96362.31
2023-05-15T20:16:36.988Z,96355.81
2023-05-15T20:19:04.114Z,96361.94
2023-05-15T20:21:31.950Z,96360.03
2023-05-15T20:23:58.624Z,96367.59
2023-05-15T20:26:25.104Z,96357.75
2023-05-15T20:28:52.779Z,96355.88
2023-05-15T20:31:19.425Z,96361.56
2023-05-15T20:33:46.085Z,96366.09
2023-05-15T20:36:12.646Z,96364.63
2023-05-15T20:38:40.509Z,96377.53
2023-05-15T20:41:07.293Z,96368.38
2023-05-15T20:43:33.781Z,96354.53
2023-05-15T20:46:00.505Z,96357.78
2023-05-15T20:48:26.999Z,96359.56
2023-05-15T20:50:53.506Z,96370.81
2023-05-15T20:53:20.094Z,96364.75
2023-05-15T20:55:46.831Z,96364.81
2023-05-15T20:58:13.336Z,96377.16
2023-05-15T21:00:39.778Z,96364.84
2023-05-15T21:03:06.528Z,96377.25
2023-05-15T21:05:33.189Z,96366.31
2023-05-15T21:07:59.775Z,96366.47
2023-05-15T21:10:27.461Z,96371.00
2023-05-15T21:12:54.127Z,96366.91
2023-05-15T21:15:20.661Z,96365.94
2023-05-15T21:17:47.182Z,96354.38
2023-05-15T21:20:13.684Z,96360.88
2023-05-15T21:22:40.143Z,96362.09
2023-05-15T21:25:07.073Z,96349.72
2023-05-15T21:27:33.554Z,96362.94
2023-05-15T21:30:00.089Z,96348.13
2023-05-15T21:32:27.624Z,96357.22
2023-05-15T21:34:54.098Z,96373.91
2023-05-15T21:37:20.575Z,96371.47
2023-05-15T21:39:47.034Z,96385.28
2023-05-15T21:42:13.480Z,96391.34
2023-05-15T21:44:39.927Z,96381.63
2023-05-15T21:47:06.825Z,96387.50
2023-05-15T21:49:33.315Z,96392.56
2023-05-15T21:51:59.870Z,96382.66
2023-05-15T21:54:26.381Z,96377.16
2023-05-15T21:56:54.854Z,96384.47
2023-05-15T21:59:21.622Z,96384.44
2023-05-15T22:01:48.565Z,96386.06
2023-05-15T22:04:15.120Z,96380.56
2023-05-15T22:06:41.639Z,96386.06
2023-05-15T22:09:08.370Z,96384.19
2023-05-15T22:11:34.803Z,96387.25
2023-05-15T22:14:01.269Z,96383.19
2023-05-15T22:16:27.863Z,96385.81
2023-05-15T22:18:55.203Z,96393.28
2023-05-15T22:21:21.734Z,96394.47
2023-05-15T22:23:48.390Z,96391.59
2023-05-15T22:26:15.041Z,96396.06
2023-05-15T22:28:42.087Z,96390.00
2023-05-15T22:31:08.664Z,96391.97
2023-05-15T22:33:35.561Z,96398.84
2023-05-15T22:36:02.338Z,96380.91
2023-05-15T22:38:29.286Z,96389.38
2023-05-15T22:40:55.768Z,96386.13
2023-05-15T22:43:22.563Z,96385.16
2023-05-15T22:45:49.357Z,96396.28
2023-05-15T22:48:15.887Z,96398.22
2023-05-15T22:50:43.721Z,96391.25
2023-05-15T22:53:10.268Z,96401.91
2023-05-15T22:55:36.686Z,96396.47
2023-05-15T22:58:03.961Z,96398.91
2023-05-15T23:00:31.034Z,96405.00
2023-05-15T23:02:57.976Z,96399.94
2023-05-15T23:05:24.971Z,96401.63
2023-05-15T23:07:52.675Z,96398.34
2023-05-15T23:10:19.512Z,96406.59
2023-05-15T23:12:46.371Z,96401.50
2023-05-15T23:15:13.634Z,96399.44
2023-05-15T23:17:40.542Z,96406.56
2023-05-15T23:20:10.450Z,96395.78
2023-05-15T23:22:37.112Z,96394.28
2023-05-15T23:25:03.965Z,96404.06
2023-05-15T23:27:30.499Z,96397.72
2023-05-15T23:29:56.972Z,96402.66
2023-05-15T23:32:24.519Z,96404.09
2023-05-15T23:34:52.070Z,96419.06
2023-05-15T23:37:18.912Z,96417.16
2023-05-15T23:39:45.564Z,96416.22
2023-05-15T23:42:12.486Z,96419.97
2023-05-15T23:44:39.159Z,96411.78
2023-05-15T23:47:06.646Z,96415.47
2023-05-15T23:49:33.607Z,96408.41
2023-05-15T23:52:00.592Z,96412.31
2023-05-15T23:54:27.066Z,96412.69
2023-05-15T23:56:55.653Z,96414.53
2023-05-15T23:59:22.091Z,96416.44
